createdAt,value
2023-04-18T00:01:38.350Z,5.82
2023-04-18T00:04:03.199Z,5.77
2023-04-18T00:06:27.001Z,5.69
2023-04-18T00:08:51.044Z,5.75
2023-04-18T00:11:16.018Z,5.80
2023-04-18T00:13:39.657Z,5.68
2023-04-18T00:16:03.697Z,5.75
2023-04-18T00:18:27.922Z,5.69
2023-04-18T00:20:51.474Z,5.79
2023-04-18T00:23:15.230Z,5.87
2023-04-18T00:25:38.772Z,5.62
2023-04-18T00:28:04.230Z,5.71
2023-04-18T00:30:28.254Z,5.61
2023-04-18T00:32:53.165Z,5.64
2023-04-18T00:35:16.749Z,5.70
2023-04-18T00:37:43.118Z,5.63
2023-04-18T00:40:08.235Z,5.53
2023-04-18T00:42:31.927Z,5.36
2023-04-18T00:44:56.987Z,5.46
2023-04-18T00:47:20.776Z,5.43
2023-04-18T00:49:44.754Z,5.52
2023-04-18T00:52:08.542Z,5.51
2023-04-18T00:54:32.166Z,5.50
2023-04-18T00:56:56.148Z,5.42
2023-04-18T00:59:19.907Z,5.42
2023-04-18T01:01:45.324Z,5.34
2023-04-18T01:04:10.024Z,5.40
2023-04-18T01:06:34.083Z,5.30
2023-04-18T01:08:58.632Z,5.24
2023-04-18T01:11:22.356Z,5.28
2023-04-18T01:14:01.085Z,5.26
2023-04-18T01:16:24.876Z,5.30
2023-04-18T01:18:50.333Z,5.31
2023-04-18T01:21:14.732Z,5.13
2023-04-18T01:23:38.532Z,5.20
2023-04-18T01:26:03.956Z,5.23
2023-04-18T01:28:27.823Z,5.22
2023-04-18T01:30:52.814Z,5.16
2023-04-18T01:33:16.463Z,5.10
2023-04-18T01:35:42.546Z,5.14
2023-04-18T01:38:06.213Z,5.02
2023-04-18T01:40:31.391Z,5.10
2023-04-18T01:42:56.470Z,5.17
2023-04-18T01:45:22.340Z,5.21
2023-04-18T01:47:46.192Z,5.28
2023-04-18T01:50:11.184Z,5.27
2023-04-18T01:52:34.759Z,5.30
2023-04-18T01:54:58.435Z,5.26
2023-04-18T01:57:22.406Z,5.26
2023-04-18T01:59:48.063Z,5.31
2023-04-18T02:02:12.005Z,5.28
2023-04-18T02:04:35.822Z,5.17
2023-04-18T02:06:59.364Z,5.31
2023-04-18T02:09:23.002Z,5.11
2023-04-18T02:11:46.597Z,5.18
2023-04-18T02:14:10.472Z,5.16
2023-04-18T02:16:35.779Z,5.17
2023-04-18T02:19:00.248Z,5.21
2023-04-18T02:21:24.405Z,5.24
2023-04-18T02:23:48.850Z,5.22
2023-04-18T02:26:12.424Z,5.21
2023-04-18T02:28:38.962Z,5.18
2023-04-18T02:31:02.539Z,5.25
2023-04-18T02:33:27.692Z,5.12
2023-04-18T02:35:51.215Z,5.17
2023-04-18T02:38:14.961Z,5.08
2023-04-18T02:40:38.823Z,5.06
2023-04-18T02:43:02.669Z,5.13
2023-04-18T02:45:26.289Z,5.28
2023-04-18T02:47:55.395Z,5.23
2023-04-18T02:50:21.299Z,5.19
2023-04-18T02:52:45.006Z,5.12
2023-04-18T02:55:09.465Z,5.22
2023-04-18T02:57:36.833Z,5.12
2023-04-18T03:00:20.966Z,5.19
2023-04-18T03:03:10.550Z,5.16
2023-04-18T03:05:40.294Z,5.03
2023-04-18T03:08:04.078Z,5.04
2023-04-18T03:10:28.005Z,5.11
2023-04-18T03:12:52.449Z,5.04
2023-04-18T03:15:16.761Z,5.21
2023-04-18T03:17:41.146Z,4.99
2023-04-18T03:20:05.222Z,5.04
2023-04-18T03:22:30.266Z,5.06
2023-04-18T03:24:55.605Z,5.21
2023-04-18T03:27:28.073Z,5.13
2023-04-18T03:29:51.696Z,5.13
2023-04-18T03:32:15.319Z,5.12
2023-04-18T03:34:38.920Z,5.34
2023-04-18T03:37:04.702Z,5.08
2023-04-18T03:39:34.828Z,5.23
2023-04-18T03:41:58.606Z,5.39
2023-04-18T03:44:22.263Z,5.29
2023-04-18T03:46:46.315Z,5.33
2023-04-18T03:49:10.033Z,5.41
2023-04-18T03:51:43.248Z,5.19
2023-04-18T03:54:07.599Z,5.32
2023-04-18T03:56:32.710Z,5.08
2023-04-18T03:58:56.332Z,5.14
2023-04-18T04:01:20.147Z,5.28
2023-04-18T04:03:43.971Z,5.36
2023-04-18T04:06:08.346Z,5.27
2023-04-18T04:08:31.977Z,5.20
2023-04-18T04:10:55.570Z,5.14
2023-04-18T04:13:21.245Z,5.12
2023-04-18T04:15:45.833Z,5.24
2023-04-18T04:18:09.874Z,5.18
2023-04-18T04:20:36.439Z,5.33
2023-04-18T04:23:07.457Z,5.22
2023-04-18T04:25:33.393Z,5.19
2023-04-18T04:28:01.552Z,5.04
2023-04-18T04:30:28.711Z,5.00
2023-04-18T04:32:52.287Z,5.15
2023-04-18T04:35:16.342Z,5.08
2023-04-18T04:37:41.268Z,5.29
2023-04-18T04:40:17.564Z,5.32
2023-04-18T04:42:45.984Z,5.38
2023-04-18T04:45:17.431Z,5.44
2023-04-18T04:47:43.713Z,5.45
2023-04-18T04:50:14.757Z,5.29
2023-04-18T04:52:40.196Z,5.48
2023-04-18T04:55:03.825Z,5.42
2023-04-18T04:57:27.562Z,5.48
2023-04-18T04:59:51.097Z,5.39
2023-04-18T05:02:14.874Z,5.58
2023-04-18T05:04:40.047Z,5.67
2023-04-18T05:07:03.775Z,5.55
2023-04-18T05:09:27.384Z,5.51
2023-04-18T05:11:51.034Z,5.61
2023-04-18T05:14:14.843Z,5.50
2023-04-18T05:16:38.705Z,5.40
2023-04-18T05:19:02.421Z,5.57
2023-04-18T05:21:28.732Z,5.34
2023-04-18T05:23:52.244Z,5.72
2023-04-18T05:26:15.933Z,5.80
2023-04-18T05:28:39.527Z,5.82
2023-04-18T05:31:03.135Z,5.67
2023-04-18T05:33:26.768Z,5.93
2023-04-18T05:35:50.367Z,5.70
2023-04-18T05:38:15.286Z,5.85
2023-04-18T05:40:38.955Z,5.92
2023-04-18T05:43:02.731Z,6.11
2023-04-18T05:45:26.390Z,6.25
2023-04-18T05:47:50.077Z,6.14
2023-04-18T05:50:13.789Z,6.34
2023-04-18T05:52:39.068Z,6.45
2023-04-18T05:55:04.156Z,6.22
2023-04-18T05:57:27.653Z,6.36
2023-04-18T05:59:51.247Z,6.55
2023-04-18T06:02:14.990Z,6.64
2023-04-18T06:04:38.859Z,6.67
2023-04-18T06:07:02.457Z,6.54
2023-04-18T06:09:26.092Z,7.16
2023-04-18T06:11:51.855Z,7.60
2023-04-18T06:14:15.962Z,7.56
2023-04-18T06:16:39.910Z,8.04
2023-04-18T06:19:03.618Z,7.97
2023-04-18T06:21:27.171Z,8.29
2023-04-18T06:23:50.801Z,8.25
2023-04-18T06:26:14.550Z,8.22
2023-04-18T06:28:39.516Z,8.08
2023-04-18T06:31:03.118Z,7.71
2023-04-18T06:33:26.920Z,8.11
2023-04-18T06:35:50.762Z,8.05
2023-04-18T06:38:14.511Z,8.09
2023-04-18T06:40:38.132Z,8.11
2023-04-18T06:43:02.023Z,8.16
2023-04-18T06:45:27.169Z,8.13
2023-04-18T07:00:01.219Z,8.12
2023-04-18T07:02:25.023Z,7.90
2023-04-18T07:04:48.677Z,8.04
2023-04-18T07:07:12.418Z,8.34
2023-04-18T07:09:36.156Z,8.41
2023-04-18T07:11:59.829Z,8.56
2023-04-18T07:14:25.709Z,8.44
2023-04-18T07:16:50.933Z,8.65
2023-04-18T07:19:14.691Z,8.59
2023-04-18T07:21:40.586Z,9.15
2023-04-18T07:24:04.292Z,9.29
2023-04-18T07:26:28.408Z,9.13
2023-04-18T07:28:52.155Z,8.87
2023-04-18T07:31:16.708Z,9.46
2023-04-18T07:33:43.465Z,9.33
2023-04-18T07:36:08.175Z,9.89
2023-04-18T07:38:31.890Z,10.44
2023-04-18T07:40:58.826Z,10.20
2023-04-18T07:43:22.830Z,10.13
2023-04-18T07:45:46.568Z,10.42
2023-04-18T07:48:10.253Z,9.82
2023-04-18T07:50:35.408Z,10.32
2023-04-18T07:52:59.116Z,10.35
2023-04-18T07:55:22.870Z,10.38
2023-04-18T07:57:50.315Z,9.80
2023-04-18T08:00:16.213Z,10.60
2023-04-18T08:02:39.923Z,10.75
2023-04-18T08:05:03.871Z,11.03
2023-04-18T08:07:28.935Z,10.86
2023-04-18T08:09:52.581Z,10.48
2023-04-18T08:12:16.137Z,10.93
2023-04-18T08:14:39.770Z,10.72
2023-04-18T08:17:03.762Z,11.09
2023-04-18T08:19:27.476Z,10.94
2023-04-18T08:21:52.493Z,11.30
2023-04-18T08:24:17.583Z,11.16
2023-04-18T08:26:41.121Z,11.03
2023-04-18T08:29:04.766Z,11.06
2023-04-18T08:31:28.320Z,10.56
2023-04-18T08:33:52.415Z,10.50
2023-04-18T08:36:16.373Z,11.02
2023-04-18T08:38:40.495Z,10.83
2023-04-18T08:41:05.501Z,10.90
2023-04-18T08:43:31.164Z,11.17
2023-04-18T08:46:00.611Z,11.11
2023-04-18T08:48:24.214Z,11.17
2023-04-18T08:50:47.757Z,10.68
2023-04-18T08:53:12.035Z,10.80
2023-04-18T08:55:35.972Z,10.73
2023-04-18T08:58:01.401Z,10.89
2023-04-18T09:00:25.290Z,10.62
2023-04-18T09:02:49.636Z,10.71
2023-04-18T09:05:16.575Z,10.53
2023-04-18T09:07:40.665Z,10.73
2023-04-18T09:10:04.302Z,10.69
2023-04-18T09:12:29.660Z,10.66
2023-04-18T09:14:57.921Z,10.66
2023-04-18T09:17:34.518Z,10.34
2023-04-18T09:19:58.964Z,10.74
2023-04-18T09:22:22.921Z,10.62
2023-04-18T09:24:53.566Z,10.57
2023-04-18T09:27:17.191Z,10.97
2023-04-18T09:29:46.558Z,11.43
2023-04-18T09:32:11.493Z,11.06
2023-04-18T09:34:38.358Z,11.03
2023-04-18T09:37:10.222Z,11.35
2023-04-18T09:39:33.933Z,11.46
2023-04-18T09:42:00.701Z,11.57
2023-04-18T09:44:24.337Z,11.74
2023-04-18T09:46:49.449Z,11.98
2023-04-18T09:49:14.975Z,12.15
2023-04-18T09:51:41.575Z,12.34
2023-04-18T09:54:06.634Z,12.42
2023-04-18T09:56:33.417Z,12.43
2023-04-18T09:59:02.452Z,12.60
2023-04-18T10:01:29.606Z,12.61
2023-04-18T10:03:55.138Z,12.60
2023-04-18T10:06:20.329Z,12.67
2023-04-18T10:08:44.838Z,12.23
2023-04-18T10:11:08.393Z,12.46
2023-04-18T10:13:33.535Z,12.60
2023-04-18T10:15:57.626Z,12.27
2023-04-18T10:18:25.029Z,12.57
2023-04-18T10:20:48.703Z,12.86
2023-04-18T10:23:39.630Z,12.81
2023-04-18T10:26:04.091Z,13.03
2023-04-18T10:28:28.279Z,12.81
2023-04-18T10:31:07.486Z,13.17
2023-04-18T10:33:34.482Z,12.52
2023-04-18T10:36:17.349Z,12.93
2023-04-18T10:38:47.920Z,13.12
2023-04-18T10:41:17.288Z,12.94
2023-04-18T10:44:15.842Z,13.37
2023-04-18T10:46:41.822Z,13.23
2023-04-18T10:49:16.789Z,13.63
2023-04-18T10:51:40.743Z,13.61
2023-04-18T10:54:09.879Z,13.07
2023-04-18T10:56:33.563Z,13.65
2023-04-18T10:59:03.619Z,13.57
2023-04-18T11:01:31.702Z,13.39
2023-04-18T11:03:57.173Z,13.86
2023-04-18T11:06:20.899Z,13.69
2023-04-18T11:08:45.297Z,13.68
2023-04-18T11:11:11.384Z,13.92
2023-04-18T11:13:36.892Z,13.68
2023-04-18T11:16:00.714Z,13.60
2023-04-18T11:18:24.363Z,13.40
2023-04-18T11:20:50.287Z,13.71
2023-04-18T11:23:20.572Z,13.55
2023-04-18T11:25:45.274Z,13.81
2023-04-18T11:28:13.487Z,13.73
2023-04-18T11:30:41.936Z,13.70
2023-04-18T11:33:08.697Z,13.96
2023-04-18T11:35:32.717Z,14.15
2023-04-18T11:37:56.417Z,14.31
2023-04-18T11:40:20.070Z,14.29
2023-04-18T11:42:44.005Z,13.87
2023-04-18T11:45:13.614Z,13.89
2023-04-18T11:47:37.188Z,13.83
2023-04-18T11:50:02.419Z,13.93
2023-04-18T11:52:28.696Z,13.95
2023-04-18T11:54:52.655Z,14.23
2023-04-18T11:57:25.123Z,13.95
2023-04-18T11:59:54.134Z,14.07
2023-04-18T12:02:19.239Z,14.04
2023-04-18T12:04:53.436Z,14.24
2023-04-18T12:07:33.064Z,14.13
2023-04-18T12:09:56.726Z,14.00
2023-04-18T12:12:20.994Z,13.91
2023-04-18T12:14:44.862Z,14.21
2023-04-18T12:17:08.474Z,14.36
2023-04-18T12:19:34.291Z,14.29
2023-04-18T12:22:01.437Z,14.59
2023-04-18T12:24:25.271Z,14.26
2023-04-18T12:26:50.018Z,14.45
2023-04-18T12:29:13.939Z,14.25
2023-04-18T12:31:37.669Z,14.77
2023-04-18T12:34:01.347Z,14.33
2023-04-18T12:36:28.435Z,14.44
2023-04-18T12:38:52.099Z,14.56
2023-04-18T12:41:15.619Z,14.57
2023-04-18T12:43:39.246Z,14.37
2023-04-18T12:46:02.821Z,14.48
2023-04-18T12:48:26.517Z,14.46
2023-04-18T12:50:50.062Z,14.82
2023-04-18T12:53:15.067Z,14.58
2023-04-18T12:55:38.770Z,14.33
2023-04-18T12:58:02.726Z,14.54
2023-04-18T13:00:29.260Z,14.58
2023-04-18T13:02:53.501Z,14.41
2023-04-18T13:05:20.039Z,14.54
2023-04-18T13:07:44.484Z,14.63
2023-04-18T13:10:11.980Z,14.84
2023-04-18T13:12:35.675Z,14.85
2023-04-18T13:14:59.458Z,14.70
2023-04-18T13:17:23.208Z,14.67
2023-04-18T13:19:46.859Z,14.76
2023-04-18T13:22:10.534Z,15.03
2023-04-18T13:24:34.089Z,15.13
2023-04-18T13:26:59.113Z,14.91
2023-04-18T13:29:22.657Z,14.80
2023-04-18T13:31:46.683Z,14.62
2023-04-18T13:34:10.266Z,15.02
2023-04-18T13:36:35.010Z,14.97
2023-04-18T13:38:59.221Z,14.96
2023-04-18T13:41:24.233Z,15.09
2023-04-18T13:43:49.148Z,15.34
2023-04-18T13:46:13.754Z,15.31
2023-04-18T13:48:37.366Z,15.03
2023-04-18T13:51:01.367Z,14.94
2023-04-18T13:53:24.943Z,14.99
2023-04-18T13:55:48.595Z,15.16
2023-04-18T13:58:12.181Z,14.95
2023-04-18T14:00:37.172Z,15.12
2023-04-18T14:03:00.841Z,15.13
2023-04-18T14:05:24.598Z,15.30
2023-04-18T14:07:48.895Z,15.41
2023-04-18T14:10:12.994Z,15.43
2023-04-18T14:12:36.730Z,15.47
2023-04-18T14:15:00.909Z,15.46
2023-04-18T14:17:26.191Z,15.29
2023-04-18T14:19:51.405Z,14.93
2023-04-18T14:22:15.165Z,14.97
2023-04-18T14:24:38.848Z,15.11
2023-04-18T14:27:02.872Z,14.90
2023-04-18T14:29:26.742Z,15.17
2023-04-18T14:31:50.391Z,15.21
2023-04-18T14:34:15.664Z,15.09
2023-04-18T14:36:39.344Z,14.86
2023-04-18T14:39:03.714Z,14.95
2023-04-18T14:41:27.337Z,14.77
2023-04-18T14:43:50.931Z,15.05
2023-04-18T14:46:16.344Z,15.31
2023-04-18T14:48:40.167Z,15.18
2023-04-18T14:51:05.802Z,15.01
2023-04-18T14:53:29.852Z,14.90
2023-04-18T14:55:53.780Z,14.64
2023-04-18T14:58:17.421Z,14.95
2023-04-18T15:00:40.925Z,15.18
2023-04-18T15:03:05.620Z,15.04
2023-04-18T15:05:29.907Z,15.02
2023-04-18T15:07:56.196Z,14.99
2023-04-18T15:10:22.300Z,14.88
2023-04-18T15:12:46.800Z,14.97
2023-04-18T15:15:11.510Z,15.17
2023-04-18T15:17:35.073Z,14.89
2023-04-18T15:20:00.234Z,14.85
2023-04-18T15:22:23.829Z,15.17
2023-04-18T15:24:48.794Z,15.05
2023-04-18T15:27:12.990Z,14.82
2023-04-18T15:29:36.817Z,14.99
2023-04-18T15:32:01.513Z,14.70
2023-04-18T15:34:25.536Z,14.43
2023-04-18T15:36:49.833Z,14.58
2023-04-18T15:39:13.350Z,14.52
2023-04-18T15:41:39.207Z,14.65
2023-04-18T15:44:02.802Z,14.14
2023-04-18T15:46:26.554Z,14.24
2023-04-18T15:48:50.184Z,14.54
2023-04-18T15:51:13.726Z,14.41
2023-04-18T15:53:37.269Z,14.36
2023-04-18T15:56:01.830Z,14.33
2023-04-18T15:58:30.003Z,14.27
2023-04-18T16:00:54.203Z,14.29
2023-04-18T16:03:18.094Z,14.26
2023-04-18T16:05:41.856Z,14.33
2023-04-18T16:08:05.748Z,14.05
2023-04-18T16:10:29.496Z,14.06
2023-04-18T16:12:53.672Z,14.00
2023-04-18T16:15:18.660Z,14.04
2023-04-18T16:17:42.321Z,13.91
2023-04-18T16:20:08.771Z,14.05
2023-04-18T16:22:32.424Z,13.75
2023-04-18T16:24:56.151Z,13.73
2023-04-18T16:27:19.786Z,13.90
2023-04-18T16:29:44.507Z,13.88
2023-04-18T16:32:09.540Z,13.76
2023-04-18T16:34:34.035Z,14.03
2023-04-18T16:36:57.707Z,13.87
2023-04-18T16:39:22.022Z,13.86
2023-04-18T16:41:46.077Z,14.02
2023-04-18T16:44:11.137Z,14.36
2023-04-18T16:46:34.900Z,14.01
2023-04-18T16:49:01.560Z,13.75
2023-04-18T16:51:25.139Z,13.74
2023-04-18T16:53:49.262Z,13.50
2023-04-18T16:56:12.814Z,13.44
2023-04-18T16:58:36.460Z,13.41
2023-04-18T17:00:59.978Z,13.03
2023-04-18T17:03:23.648Z,12.86
2023-04-18T17:05:48.700Z,12.78
2023-04-18T17:08:12.314Z,12.90
2023-04-18T17:10:36.102Z,12.92
2023-04-18T17:13:00.912Z,13.30
2023-04-18T17:15:24.621Z,12.96
2023-04-18T17:17:48.398Z,12.88
2023-04-18T17:20:12.653Z,12.62
2023-04-18T17:22:38.038Z,12.38
2023-04-18T17:25:01.790Z,12.62
2023-04-18T17:27:25.404Z,12.25
2023-04-18T17:29:48.947Z,12.26
2023-04-18T17:32:12.557Z,12.69
2023-04-18T17:34:36.105Z,12.19
2023-04-18T17:36:59.816Z,12.36
2023-04-18T17:39:24.836Z,12.10
2023-04-18T17:41:48.519Z,12.07
2023-04-18T17:44:12.126Z,12.14
2023-04-18T17:46:36.047Z,12.17
2023-04-18T17:48:59.683Z,12.07
2023-04-18T17:51:23.674Z,11.86
2023-04-18T17:53:47.655Z,11.86
2023-04-18T17:56:14.550Z,11.99
2023-04-18T17:58:38.449Z,11.79
2023-04-18T18:01:02.127Z,11.86
2023-04-18T18:03:25.897Z,11.58
2023-04-18T18:05:51.598Z,11.38
2023-04-18T18:08:15.495Z,11.32
2023-04-18T18:10:39.238Z,11.26
2023-04-18T18:13:04.458Z,11.06
2023-04-18T18:15:28.537Z,11.15
2023-04-18T18:17:52.741Z,11.30
2023-04-18T18:20:16.397Z,11.07
2023-04-18T18:22:40.649Z,11.34
2023-04-18T18:25:05.187Z,11.22
2023-04-18T18:27:28.877Z,11.01
2023-04-18T18:29:54.216Z,10.98
2023-04-18T18:32:17.920Z,10.92
2023-04-18T18:34:41.674Z,10.84
2023-04-18T18:37:05.428Z,10.64
2023-04-18T18:39:29.037Z,10.77
2023-04-18T18:41:52.612Z,10.65
2023-04-18T18:44:16.313Z,10.72
2023-04-18T18:46:42.971Z,10.53
2023-04-18T18:49:08.108Z,10.46
2023-04-18T18:51:31.806Z,10.66
2023-04-18T18:53:56.811Z,10.42
2023-04-18T18:56:20.399Z,10.29
2023-04-18T18:58:44.399Z,10.10
2023-04-18T19:01:08.421Z,10.10
2023-04-18T19:03:34.772Z,10.02
2023-04-18T19:05:58.551Z,9.90
2023-04-18T19:08:22.250Z,9.98
2023-04-18T19:10:46.005Z,9.81
2023-04-18T19:13:09.787Z,9.87
2023-04-18T19:15:33.370Z,10.20
2023-04-18T19:17:57.260Z,10.02
2023-04-18T19:20:24.082Z,10.02
2023-04-18T19:22:47.785Z,9.91
2023-04-18T19:25:11.780Z,9.66
2023-04-18T19:27:35.960Z,9.70
2023-04-18T19:29:59.521Z,9.63
2023-04-18T19:32:23.282Z,9.73
2023-04-18T19:34:46.933Z,9.46
2023-04-18T19:37:12.063Z,9.64
2023-04-18T19:39:35.737Z,9.59
2023-04-18T19:41:59.458Z,9.61
2023-04-18T19:44:23.080Z,9.28
2023-04-18T19:46:46.812Z,9.42
2023-04-18T19:49:10.472Z,8.99
2023-04-18T19:51:34.331Z,9.08
2023-04-18T19:53:59.762Z,8.94
2023-04-18T19:56:23.597Z,9.35
2023-04-18T19:58:47.686Z,8.97
2023-04-18T20:01:11.996Z,9.04
2023-04-18T20:03:35.750Z,8.68
2023-04-18T20:05:59.570Z,8.71
2023-04-18T20:08:23.178Z,8.77
2023-04-18T20:10:49.078Z,8.96
2023-04-18T20:13:12.664Z,8.65
2023-04-18T20:15:36.671Z,8.54
2023-04-18T20:18:00.507Z,8.45
2023-04-18T20:20:24.466Z,8.57
2023-04-18T20:22:48.082Z,8.43
2023-04-18T20:25:11.730Z,8.49
2023-04-18T20:27:36.885Z,8.45
2023-04-18T20:30:00.584Z,8.30
2023-04-18T20:32:24.280Z,8.51
2023-04-18T20:34:48.137Z,8.40
2023-04-18T20:37:11.736Z,8.06
2023-04-18T20:39:35.504Z,8.29
2023-04-18T20:41:59.971Z,8.01
2023-04-18T20:44:25.090Z,8.05
2023-04-18T20:46:48.872Z,7.98
2023-04-18T20:49:13.082Z,7.72
2023-04-18T20:51:38.008Z,7.76
2023-04-18T20:54:01.764Z,7.83
2023-04-18T20:56:25.545Z,7.88
2023-04-18T20:58:49.178Z,7.67
2023-04-18T21:01:14.230Z,7.71
2023-04-18T21:03:38.041Z,7.78
2023-04-18T21:06:02.165Z,7.72
2023-04-18T21:08:25.988Z,7.63
2023-04-18T21:10:49.545Z,7.61
2023-04-18T21:13:13.228Z,7.45
2023-04-18T21:15:38.151Z,7.29
2023-04-18T21:18:03.414Z,7.39
2023-04-18T21:20:27.315Z,7.26
2023-04-18T21:22:50.990Z,7.11
2023-04-18T21:25:15.356Z,7.14
2023-04-18T21:27:38.993Z,7.01
2023-04-18T21:30:04.825Z,7.06
2023-04-18T21:32:28.919Z,7.08
2023-04-18T21:34:55.763Z,7.22
2023-04-18T21:37:19.444Z,7.04
2023-04-18T21:39:43.390Z,7.04
2023-04-18T21:42:07.150Z,6.84
2023-04-18T21:44:31.169Z,7.02
2023-04-18T21:46:54.887Z,6.77
2023-04-18T21:49:18.410Z,6.77
2023-04-18T21:51:43.426Z,6.68
2023-04-18T21:54:08.468Z,6.82
2023-04-18T21:56:32.087Z,6.67
2023-04-18T21:58:55.730Z,6.50
2023-04-18T22:01:19.592Z,6.38
2023-04-18T22:03:43.410Z,6.56
2023-04-18T22:06:07.625Z,6.55
2023-04-18T22:08:32.684Z,6.43
2023-04-18T22:10:58.265Z,6.27
2023-04-18T22:13:22.011Z,6.48
2023-04-18T22:15:46.214Z,6.27
2023-04-18T22:18:14.127Z,6.47
2023-04-18T22:20:38.964Z,6.31
2023-04-18T22:23:03.105Z,6.26
2023-04-18T22:25:28.118Z,6.37
2023-04-18T22:27:51.667Z,6.26
2023-04-18T22:30:16.249Z,6.42
2023-04-18T22:32:40.173Z,6.30
2023-04-18T22:35:04.080Z,6.16
2023-04-18T22:37:27.683Z,6.13
2023-04-18T22:39:51.346Z,6.09
2023-04-18T22:42:16.303Z,6.14
2023-04-18T22:44:39.912Z,6.10
2023-04-18T22:47:03.549Z,6.15
2023-04-18T22:49:27.656Z,5.99
2023-04-18T22:51:54.559Z,5.97
2023-04-18T22:54:18.257Z,5.86
2023-04-18T22:56:41.812Z,5.89
2023-04-18T22:59:06.814Z,6.03
2023-04-18T23:01:30.384Z,6.07
2023-04-18T23:03:54.302Z,5.92
2023-04-18T23:06:18.147Z,5.94
2023-04-18T23:08:41.786Z,5.96
2023-04-18T23:11:05.362Z,5.93
2023-04-18T23:13:28.966Z,5.93
2023-04-18T23:15:53.920Z,5.93
2023-04-18T23:18:17.591Z,6.16
2023-04-18T23:20:41.116Z,6.05
2023-04-18T23:23:04.739Z,6.16
2023-04-18T23:25:28.423Z,6.12
2023-04-18T23:27:52.034Z,6.23
2023-04-18T23:30:15.987Z,6.18
2023-04-18T23:32:41.151Z,6.08
2023-04-18T23:35:06.033Z,6.20
2023-04-18T23:37:29.663Z,6.23
2023-04-18T23:39:53.197Z,6.18
2023-04-18T23:42:17.102Z,6.08
2023-04-18T23:44:40.721Z,6.30
2023-04-18T23:47:04.500Z,6.09
2023-04-18T23:49:29.484Z,6.35
2023-04-18T23:51:53.031Z,6.44
2023-04-18T23:54:16.803Z,6.28
2023-04-18T23:56:40.646Z,6.17
2023-04-18T23:59:04.355Z,6.27
